createdAt,value
2023-02-19T00:01:18.461Z,3.50
2023-02-19T00:06:18.389Z,3.00
2023-02-19T00:11:18.336Z,2.59
2023-02-19T00:16:18.255Z,2.09
2023-02-19T00:21:18.198Z,2.90
2023-02-19T00:26:18.974Z,1.90
2023-02-19T00:31:18.210Z,3.29
2023-02-19T00:36:17.995Z,1.70
2023-02-19T00:41:17.948Z,1.79
2023-02-19T00:46:17.892Z,4.69
2023-02-19T00:51:17.828Z,1.70
2023-02-19T00:56:17.735Z,3.20
2023-02-19T01:01:17.719Z,2.00
2023-02-19T01:06:17.612Z,1.29
2023-02-19T01:11:17.554Z,1.50
2023-02-19T01:16:17.577Z,0.80
2023-02-19T01:21:17.412Z,1.20
2023-02-19T01:26:17.351Z,0.90
2023-02-19T01:31:17.435Z,0.30
2023-02-19T01:36:17.245Z,0.70
2023-02-19T01:41:17.158Z,0.20
2023-02-19T01:46:17.135Z,0.30
2023-02-19T01:51:17.022Z,0.10
2023-02-19T01:56:16.947Z,0.30
2023-02-19T02:01:16.890Z,1.29
2023-02-19T02:06:16.820Z,1.20
2023-02-19T02:11:16.760Z,1.39
2023-02-19T02:16:16.700Z,0.30
2023-02-19T02:21:16.630Z,0.30
2023-02-19T02:26:16.567Z,0.20
2023-02-19T02:31:16.624Z,0.50
2023-02-19T02:36:16.439Z,0.90
2023-02-19T02:41:16.375Z,0.30
2023-02-19T02:46:16.312Z,0.30
2023-02-19T02:51:16.237Z,0.50
2023-02-19T02:56:16.176Z,1.39
2023-02-19T03:01:16.142Z,1.20
2023-02-19T03:06:16.033Z,0.80
2023-02-19T03:11:15.977Z,1.10
2023-02-19T03:16:15.925Z,0.40
2023-02-19T03:21:15.844Z,0.60
2023-02-19T03:26:15.824Z,0.90
2023-02-19T03:31:15.834Z,0.80
2023-02-19T03:36:15.683Z,0.80
2023-02-19T03:41:15.582Z,1.90
2023-02-19T03:46:15.523Z,2.70
2023-02-19T03:51:15.448Z,0.60
2023-02-19T03:56:15.380Z,0.90
2023-02-19T04:01:15.324Z,0.60
2023-02-19T04:06:15.247Z,0.30
2023-02-19T04:11:15.193Z,0.40
2023-02-19T04:16:15.183Z,0.50
2023-02-19T04:21:15.061Z,0.50
2023-02-19T04:26:15.038Z,1.70
2023-02-19T04:31:15.108Z,1.90
2023-02-19T04:36:14.863Z,3.00
2023-02-19T04:41:14.793Z,0.30
2023-02-19T04:46:14.755Z,0.90
2023-02-19T04:51:14.653Z,0.60
2023-02-19T04:56:14.597Z,1.20
2023-02-19T05:01:14.861Z,1.79
2023-02-19T05:06:14.471Z,1.60
2023-02-19T05:11:14.405Z,1.00
2023-02-19T05:16:14.338Z,3.00
2023-02-19T05:21:14.260Z,0.70
2023-02-19T05:26:14.208Z,1.10
2023-02-19T05:31:14.695Z,0.60
2023-02-19T05:36:14.083Z,0.70
2023-02-19T05:41:14.002Z,0.30
2023-02-19T05:46:14.001Z,0.70
2023-02-19T05:51:13.873Z,0.40
2023-02-19T05:56:13.813Z,1.10
2023-02-19T06:01:13.740Z,0.90
2023-02-19T06:06:13.682Z,2.59
2023-02-19T06:11:13.611Z,1.10
2023-02-19T06:16:13.659Z,0.40
2023-02-19T06:21:13.599Z,1.79
2023-02-19T06:26:13.432Z,0.80
2023-02-19T06:31:13.784Z,0.40
2023-02-19T06:36:13.303Z,0.70
2023-02-19T06:41:13.595Z,0.40
2023-02-19T06:46:13.291Z,0.30
2023-02-19T06:51:13.222Z,3.00
2023-02-19T06:56:13.040Z,0.70
2023-02-19T07:01:13.296Z,1.00
2023-02-19T07:06:12.905Z,0.80
2023-02-19T07:11:12.959Z,1.70
2023-02-19T07:16:12.833Z,1.70
2023-02-19T07:21:13.069Z,4.59
2023-02-19T07:26:12.642Z,2.20
2023-02-19T07:31:13.109Z,1.70
2023-02-19T07:36:12.515Z,1.50
2023-02-19T07:41:12.740Z,1.29
2023-02-19T07:46:12.418Z,3.29
2023-02-19T07:51:12.661Z,2.09
2023-02-19T07:56:12.257Z,1.39
2023-02-19T08:01:12.479Z,1.10
2023-02-19T08:06:12.125Z,1.70
2023-02-19T08:11:12.394Z,2.09
2023-02-19T08:16:19.999Z,2.59
2023-02-19T08:21:12.286Z,1.79
2023-02-19T08:26:11.860Z,2.20
2023-02-19T08:31:12.314Z,1.50
2023-02-19T08:36:11.727Z,1.20
2023-02-19T08:41:12.198Z,1.39
2023-02-19T08:46:11.638Z,3.59
2023-02-19T08:51:12.013Z,2.40
2023-02-19T08:56:11.466Z,0.90
2023-02-19T09:01:11.866Z,0.90
2023-02-19T09:06:11.717Z,0.90
2023-02-19T09:11:11.624Z,0.60
2023-02-19T09:16:11.194Z,1.60
2023-02-19T09:21:11.438Z,0.90
2023-02-19T09:26:11.108Z,1.29
2023-02-19T09:31:11.477Z,1.29
2023-02-19T09:36:10.937Z,1.00
2023-02-19T09:41:11.230Z,5.00
2023-02-19T09:46:10.830Z,1.70
2023-02-19T09:51:11.036Z,1.39
2023-02-19T09:56:10.674Z,1.20
2023-02-19T10:01:11.089Z,2.09
2023-02-19T10:06:11.516Z,1.60
2023-02-19T10:11:10.780Z,0.70
2023-02-19T10:16:10.475Z,2.70
2023-02-19T10:21:10.777Z,2.20
2023-02-19T10:26:10.280Z,1.50
2023-02-19T10:31:10.778Z,3.20
2023-02-19T10:36:10.149Z,1.39
2023-02-19T10:41:10.361Z,1.39
2023-02-19T10:46:10.029Z,1.39
2023-02-19T10:51:10.346Z,1.50
2023-02-19T10:56:09.883Z,4.30
2023-02-19T11:01:10.104Z,2.29
2023-02-19T11:06:09.750Z,3.09
2023-02-19T11:11:10.028Z,1.79
2023-02-19T11:16:09.650Z,2.20
2023-02-19T11:21:09.885Z,1.79
2023-02-19T11:26:09.487Z,2.29
2023-02-19T11:31:10.509Z,1.39
2023-02-19T11:36:09.357Z,1.10
2023-02-19T11:41:09.739Z,1.90
2023-02-19T11:46:09.235Z,0.90
2023-02-19T11:51:09.593Z,4.09
2023-02-19T11:56:09.102Z,1.00
2023-02-19T12:01:09.641Z,0.60
2023-02-19T12:06:09.218Z,0.50
2023-02-19T12:11:08.920Z,0.30
2023-02-19T12:16:08.859Z,1.39
2023-02-19T12:21:09.187Z,0.50
2023-02-19T12:26:09.108Z,3.40
2023-02-19T12:31:08.688Z,1.00
2023-02-19T12:36:08.861Z,0.90
2023-02-19T12:41:08.513Z,2.00
2023-02-19T12:46:08.534Z,1.29
2023-02-19T12:51:08.383Z,4.69
2023-02-19T12:56:08.327Z,6.09
2023-02-19T13:01:08.288Z,1.50
2023-02-19T13:06:10.059Z,1.10
2023-02-19T13:11:08.179Z,0.30
2023-02-19T13:16:08.058Z,3.09
2023-02-19T13:21:08.001Z,1.39
2023-02-19T13:26:07.929Z,2.40
2023-02-19T13:31:08.020Z,1.50
2023-02-19T13:36:07.887Z,1.70
2023-02-19T13:41:07.740Z,2.29
2023-02-19T13:46:07.711Z,1.20
2023-02-19T13:51:07.608Z,1.10
2023-02-19T13:56:07.535Z,0.70
2023-02-19T14:01:07.516Z,1.60
2023-02-19T14:06:07.422Z,3.09
2023-02-19T14:11:07.346Z,2.59
2023-02-19T14:16:07.352Z,1.39
2023-02-19T14:21:07.217Z,1.20
2023-02-19T14:26:07.141Z,4.80
2023-02-19T14:31:07.115Z,1.00
2023-02-19T14:36:07.023Z,1.29
2023-02-19T14:41:06.962Z,0.90
2023-02-19T14:46:06.896Z,1.60
2023-02-19T14:51:06.822Z,2.29
2023-02-19T14:56:06.752Z,3.40
2023-02-19T15:01:06.691Z,3.09
2023-02-19T15:06:06.626Z,1.20
2023-02-19T15:11:06.560Z,1.00
2023-02-19T15:16:06.540Z,4.00
2023-02-19T15:21:06.435Z,2.00
2023-02-19T15:26:06.359Z,1.50
2023-02-19T15:31:06.443Z,1.10
2023-02-19T15:36:06.230Z,4.19
2023-02-19T15:41:06.174Z,1.70
2023-02-19T15:46:06.376Z,1.00
2023-02-19T15:51:06.043Z,0.80
2023-02-19T15:56:05.972Z,2.20
2023-02-19T16:01:05.917Z,0.70
2023-02-19T16:06:05.838Z,2.29
2023-02-19T16:11:05.779Z,2.20
2023-02-19T16:16:06.095Z,4.90
2023-02-19T16:21:05.650Z,2.90
2023-02-19T16:26:05.577Z,3.59
2023-02-19T16:31:05.573Z,2.09
2023-02-19T16:36:05.446Z,0.90
2023-02-19T16:41:05.389Z,11.50
2023-02-19T16:46:05.336Z,5.50
2023-02-19T16:51:05.259Z,3.40
2023-02-19T16:56:05.182Z,8.60
2023-02-19T17:01:05.174Z,7.59
2023-02-19T17:06:05.049Z,7.90
2023-02-19T17:11:04.987Z,6.30
2023-02-19T17:16:04.942Z,7.59
2023-02-19T17:21:04.855Z,7.80
2023-02-19T17:26:04.782Z,8.00
2023-02-19T17:31:04.720Z,8.69
2023-02-19T17:36:04.651Z,6.59
2023-02-19T17:41:04.589Z,7.00
2023-02-19T17:46:04.552Z,9.89
2023-02-19T17:51:04.449Z,8.80
2023-02-19T17:56:04.390Z,20.20
2023-02-19T18:01:04.326Z,7.19
2023-02-19T18:06:04.254Z,7.40
2023-02-19T18:11:04.194Z,8.89
2023-02-19T18:16:04.275Z,9.80
2023-02-19T18:21:04.166Z,10.19
2023-02-19T18:26:04.193Z,10.50
2023-02-19T18:31:04.366Z,15.60
2023-02-19T18:36:04.163Z,12.50
2023-02-19T18:41:04.205Z,11.89
2023-02-19T18:46:04.294Z,21.10
2023-02-19T18:51:04.223Z,9.80
2023-02-19T18:56:03.606Z,12.00
2023-02-19T19:01:03.656Z,10.60
2023-02-19T19:06:03.472Z,16.20
2023-02-19T19:11:03.423Z,18.60
2023-02-19T19:16:03.405Z,35.20
2023-02-19T19:21:03.286Z,17.50
2023-02-19T19:26:03.210Z,6.90
2023-02-19T19:31:03.186Z,5.09
2023-02-19T19:36:03.079Z,7.40
2023-02-19T19:41:03.018Z,6.40
2023-02-19T19:46:02.952Z,11.39
2023-02-19T19:51:02.885Z,15.00
2023-02-19T19:56:02.812Z,12.10
2023-02-19T20:01:02.752Z,10.39
2023-02-19T20:06:02.679Z,12.60
2023-02-19T20:11:02.621Z,8.80
2023-02-19T20:16:02.621Z,7.69
2023-02-19T20:21:02.492Z,6.90
2023-02-19T20:26:02.454Z,4.80
2023-02-19T20:31:02.403Z,5.40
2023-02-19T20:36:02.278Z,5.59
2023-02-19T20:41:02.218Z,7.59
2023-02-19T20:46:02.146Z,6.09
2023-02-19T20:51:02.112Z,4.19
2023-02-19T20:56:02.012Z,8.00
2023-02-19T21:01:01.963Z,6.50
2023-02-19T21:06:01.890Z,8.39
2023-02-19T21:11:01.829Z,8.60
2023-02-19T21:16:01.767Z,7.00
2023-02-19T21:21:01.702Z,4.40
2023-02-19T21:26:01.635Z,4.40
2023-02-19T21:31:01.651Z,3.70
2023-02-19T21:36:01.498Z,6.09
2023-02-19T21:41:01.515Z,2.59
2023-02-19T21:46:01.448Z,4.80
2023-02-19T21:51:01.312Z,4.59
2023-02-19T21:56:01.235Z,5.59
2023-02-19T22:01:01.259Z,3.90
2023-02-19T22:06:01.102Z,6.50
2023-02-19T22:11:01.047Z,7.09
2023-02-19T22:16:01.017Z,5.40
2023-02-19T22:21:00.911Z,6.00
2023-02-19T22:26:00.838Z,6.40
2023-02-19T22:31:00.782Z,7.30
2023-02-19T22:36:00.708Z,5.19
2023-02-19T22:41:00.650Z,5.40
2023-02-19T22:46:00.614Z,4.40
2023-02-19T22:51:00.517Z,4.30
2023-02-19T22:56:00.444Z,4.80
2023-02-19T23:01:00.434Z,3.59
2023-02-19T23:06:00.317Z,2.70
2023-02-19T23:11:00.261Z,6.40
2023-02-19T23:16:00.187Z,6.00
2023-02-19T23:21:00.130Z,4.90
2023-02-19T23:26:00.056Z,5.30
2023-02-19T23:31:00.185Z,3.90
2023-02-19T23:35:59.935Z,3.59
2023-02-19T23:40:59.865Z,5.09
2023-02-19T23:45:59.821Z,5.59
2023-02-19T23:50:59.729Z,6.19
2023-02-19T23:55:59.656Z,3.79
